Time;durP1;ratioP1;P1;durP2;ratioP2;P2;SDS_P1;SDS_P2;PMS_P1;PMS_P2;Temp;Humidity;BMP_temperature;BMP_pressure;BME280_temperature;BME280_humidity;BME280_pressure;Samples;Min_cycle;Max_cycle;Signal;HPM_P1;HPM_P2
2022/08/13 00:05:01;;;;;;;6.28;4.43;;;;;;;;;;10453460;28;20384;-74
2022/08/13 00:10:03;;;;;;;6.30;4.43;;;;;;;;;;10453638;28;20017;-75
2022/08/13 00:15:09;;;;;;;10.30;4.70;;;;;;;;;;10435401;28;20033;-75
2022/08/13 00:20:10;;;;;;;5.50;4.05;;;;;;;;;;10435178;28;20024;-74
2022/08/13 00:25:10;;;;;;;5.88;4.45;;;;;;;;;;10451577;28;20494;-75
2022/08/13 00:30:16;;;;;;;8.38;4.50;;;;;;;;;;10451527;28;20027;-75
2022/08/13 00:35:18;;;;;;;5.93;5.03;;;;;;;;;;10452726;28;20036;-74
2022/08/13 00:40:19;;;;;;;11.13;4.70;;;;;;;;;;10449914;28;20040;-74
2022/08/13 00:45:20;;;;;;;7.38;4.72;;;;;;;;;;10416678;28;20104;-74
2022/08/13 00:50:20;;;;;;;6.20;4.97;;;;;;;;;;10451065;28;20112;-75
2022/08/13 00:55:21;;;;;;;5.47;4.93;;;;;;;;;;10450797;28;20150;-74
2022/08/13 01:00:23;;;;;;;5.82;4.47;;;;;;;;;;10451857;28;20761;-75
2022/08/13 01:05:24;;;;;;;6.75;4.80;;;;;;;;;;10450546;28;20021;-75
2022/08/13 01:10:24;;;;;;;8.40;5.28;;;;;;;;;;10450287;28;20054;-74
2022/08/13 01:15:25;;;;;;;6.80;5.23;;;;;;;;;;10450215;28;20033;-75
2022/08/13 01:20:26;;;;;;;6.63;5.22;;;;;;;;;;10450176;28;20524;-75
2022/08/13 01:25:27;;;;;;;8.90;5.50;;;;;;;;;;10450011;28;20017;-75
2022/08/13 01:30:29;;;;;;;9.00;5.90;;;;;;;;;;10451363;28;20032;-74
2022/08/13 01:35:29;;;;;;;6.95;5.68;;;;;;;;;;10450120;28;20108;-76
2022/08/13 01:40:31;;;;;;;6.95;5.18;;;;;;;;;;10449596;28;20186;-74
2022/08/13 01:45:32;;;;;;;7.00;5.68;;;;;;;;;;10449745;28;20482;-74
2022/08/13 01:50:35;;;;;;;5.82;5.18;;;;;;;;;;10455381;28;20399;-74
2022/08/13 01:55:39;;;;;;;8.35;4.82;;;;;;;;;;10458881;28;20437;-76
2022/08/13 02:00:43;;;;;;;7.88;4.75;;;;;;;;;;10457570;28;20025;-74
2022/08/13 02:05:43;;;;;;;5.88;4.45;;;;;;;;;;10457570;28;20021;-74
2022/08/13 02:10:44;;;;;;;8.60;4.95;;;;;;;;;;10457162;28;20093;-78
2022/08/13 02:15:45;;;;;;;7.50;4.85;;;;;;;;;;10456729;28;20032;-74
2022/08/13 02:20:47;;;;;;;6.43;4.28;;;;;;;;;;10456983;28;20021;-78
2022/08/13 02:25:47;;;;;;;6.82;5.13;;;;;;;;;;10439007;28;20025;-74
2022/08/13 02:30:49;;;;;;;9.07;3.90;;;;;;;;;;10456088;28;20298;-75
2022/08/13 02:35:49;;;;;;;5.82;4.93;;;;;;;;;;10456835;28;20033;-75
2022/08/13 02:46:09;;;;;;;6.65;4.82;;;;;;;;;;10457178;28;20411;-74
2022/08/13 02:51:11;;;;;;;7.78;4.32;;;;;;;;;;10455603;28;20115;-75
2022/08/13 02:56:11;;;;;;;6.30;4.85;;;;;;;;;;10455629;28;20028;-75
2022/08/13 03:01:13;;;;;;;5.88;4.63;;;;;;;;;;10454150;28;20021;-74
2022/08/13 03:06:18;;;;;;;9.10;5.90;;;;;;;;;;10454992;28;20021;-75
2022/08/13 03:11:19;;;;;;;5.68;4.93;;;;;;;;;;10454500;28;20029;-74
2022/08/13 03:16:22;;;;;;;4.30;3.90;;;;;;;;;;10437972;28;20047;-74
2022/08/13 03:21:24;;;;;;;8.85;5.75;;;;;;;;;;10454027;28;20075;-73
2022/08/13 03:26:24;;;;;;;7.80;5.05;;;;;;;;;;10453874;28;20021;-72
2022/08/13 03:31:27;;;;;;;5.10;4.20;;;;;;;;;;10412134;28;20134;-75
2022/08/13 03:36:29;;;;;;;6.90;5.20;;;;;;;;;;10453873;28;20489;-75
2022/08/13 03:41:30;;;;;;;7.60;4.82;;;;;;;;;;10453368;28;20128;-75
2022/08/13 03:46:31;;;;;;;6.18;4.95;;;;;;;;;;10453279;28;20096;-75
2022/08/13 03:51:31;;;;;;;7.60;5.47;;;;;;;;;;10417197;28;20410;-75
2022/08/13 03:56:31;;;;;;;6.97;6.03;;;;;;;;;;10453151;28;20036;-74
2022/08/13 04:01:32;;;;;;;10.20;5.05;;;;;;;;;;10452241;28;20347;-75
2022/08/13 04:06:32;;;;;;;7.97;5.18;;;;;;;;;;10452610;28;20047;-74
2022/08/13 04:11:32;;;;;;;8.82;5.90;;;;;;;;;;10451866;28;20529;-74
2022/08/13 04:16:32;;;;;;;8.57;5.78;;;;;;;;;;10453681;28;20094;-74
2022/08/13 04:21:34;;;;;;;8.17;5.93;;;;;;;;;;10451960;28;20039;-75
2022/08/13 04:26:34;;;;;;;8.02;6.03;;;;;;;;;;10451342;28;20021;-75
2022/08/13 04:31:34;;;;;;;7.80;5.30;;;;;;;;;;10451001;28;20406;-74
2022/08/13 04:36:34;;;;;;;10.43;6.20;;;;;;;;;;10423442;28;20029;-75
2022/08/13 04:41:34;;;;;;;8.73;6.05;;;;;;;;;;10450617;28;20045;-74
2022/08/13 04:46:35;;;;;;;7.75;6.13;;;;;;;;;;10452087;28;20037;-74
2022/08/13 04:51:35;;;;;;;10.85;7.47;;;;;;;;;;10451045;28;20391;-74
2022/08/13 04:56:35;;;;;;;9.55;6.18;;;;;;;;;;10452070;28;20024;-75
2022/08/13 05:01:36;;;;;;;8.90;5.80;;;;;;;;;;10450549;28;20036;-76
2022/08/13 05:06:36;;;;;;;7.50;6.05;;;;;;;;;;10450725;28;20048;-75
2022/08/13 05:11:36;;;;;;;7.15;5.57;;;;;;;;;;10452068;28;20025;-75
2022/08/13 05:16:37;;;;;;;12.65;5.93;;;;;;;;;;10451369;28;20029;-75
2022/08/13 05:21:37;;;;;;;10.65;5.32;;;;;;;;;;10450637;28;20025;-76
2022/08/13 05:26:37;;;;;;;11.13;6.07;;;;;;;;;;10457029;28;20079;-75
2022/08/13 05:31:38;;;;;;;7.80;5.55;;;;;;;;;;10459223;28;20119;-76
2022/08/13 05:36:43;;;;;;;14.85;6.10;;;;;;;;;;10461075;28;20021;-75
2022/08/13 05:41:46;;;;;;;8.95;5.53;;;;;;;;;;10459476;28;20048;-76
2022/08/13 05:46:46;;;;;;;11.10;5.30;;;;;;;;;;10458140;28;20097;-75
2022/08/13 05:51:49;;;;;;;9.07;5.60;;;;;;;;;;10457854;28;20502;-75
2022/08/13 05:56:49;;;;;;;7.90;5.90;;;;;;;;;;10459171;28;20052;-76
2022/08/13 06:07:13;;;;;;;11.18;5.60;;;;;;;;;;10459513;28;20441;-75
2022/08/13 06:12:14;;;;;;;14.07;6.10;;;;;;;;;;10456919;28;20029;-75
2022/08/13 06:17:16;;;;;;;6.88;5.53;;;;;;;;;;10457530;28;20471;-75
2022/08/13 06:22:19;;;;;;;12.45;6.10;;;;;;;;;;10456635;28;20388;-75
2022/08/13 06:27:19;;;;;;;9.30;5.90;;;;;;;;;;10456054;28;20504;-75
2022/08/13 06:32:20;;;;;;;7.18;5.82;;;;;;;;;;10456153;28;20025;-76
2022/08/13 06:37:22;;;;;;;7.70;6.18;;;;;;;;;;10454153;28;20021;-75
2022/08/13 06:42:22;;;;;;;10.02;6.10;;;;;;;;;;10455132;28;20041;-75
2022/08/13 06:47:23;;;;;;;8.60;6.20;;;;;;;;;;10455416;28;20479;-75
2022/08/13 06:52:25;;;;;;;9.40;5.60;;;;;;;;;;10438554;28;20309;-75
2022/08/13 06:57:26;;;;;;;9.15;5.97;;;;;;;;;;10455105;28;20052;-76
2022/08/13 07:02:28;;;;;;;10.65;6.40;;;;;;;;;;10454675;28;20025;-75
2022/08/13 07:07:29;;;;;;;10.40;6.35;;;;;;;;;;10454610;28;20104;-75
2022/08/13 07:12:31;;;;;;;7.82;5.75;;;;;;;;;;10454434;28;20409;-75
2022/08/13 07:17:31;;;;;;;12.80;6.53;;;;;;;;;;10455799;28;20024;-75
2022/08/13 07:22:33;;;;;;;13.25;6.70;;;;;;;;;;10453928;28;20027;-74
2022/08/13 07:27:34;;;;;;;11.73;7.30;;;;;;;;;;10454003;28;20021;-74
2022/08/13 07:32:38;;;;;;;11.82;8.00;;;;;;;;;;10454038;28;20020;-75
2022/08/13 07:37:41;;;;;;;14.80;8.80;;;;;;;;;;10455011;28;20013;-74
2022/08/13 07:42:42;;;;;;;14.27;9.35;;;;;;;;;;10452967;28;20432;-77
2022/08/13 07:47:45;;;;;;;16.40;9.48;;;;;;;;;;10454066;28;20020;-74
2022/08/13 07:52:52;;;;;;;13.00;8.27;;;;;;;;;;10453865;28;20083;-75
2022/08/13 07:57:53;;;;;;;10.70;7.88;;;;;;;;;;10452954;28;20029;-75
2022/08/13 08:02:54;;;;;;;13.23;7.32;;;;;;;;;;10451960;28;20029;-74
2022/08/13 08:07:54;;;;;;;11.60;7.85;;;;;;;;;;10453977;28;20013;-74
2022/08/13 08:13:00;;;;;;;9.48;7.55;;;;;;;;;;10435302;28;20490;-73
2022/08/13 08:18:00;;;;;;;11.02;6.93;;;;;;;;;;10411241;28;20479;-74
2022/08/13 08:23:01;;;;;;;12.88;6.30;;;;;;;;;;10432361;28;20025;-75
2022/08/13 08:28:02;;;;;;;13.40;9.02;;;;;;;;;;10451182;28;20475;-74
2022/08/13 08:33:04;;;;;;;13.75;7.57;;;;;;;;;;10451526;28;20073;-74
2022/08/13 08:43:23;;;;;;;12.82;6.88;;;;;;;;;;10451345;28;20049;-74
2022/08/13 08:48:27;;;;;;;14.45;8.00;;;;;;;;;;10411166;28;20061;-74
2022/08/13 08:53:28;;;;;;;12.18;6.75;;;;;;;;;;10465895;28;20100;-74
2022/08/13 08:58:29;;;;;;;12.93;7.22;;;;;;;;;;10449465;28;20162;-74
2022/08/13 09:03:31;;;;;;;12.40;8.00;;;;;;;;;;10450912;28;20100;-74
2022/08/13 09:08:32;;;;;;;13.45;7.82;;;;;;;;;;10451331;28;20017;-74
2022/08/13 09:13:33;;;;;;;12.75;7.35;;;;;;;;;;10451501;28;20017;-74
2022/08/13 09:18:34;;;;;;;13.65;7.20;;;;;;;;;;10450075;28;20029;-74
2022/08/13 09:23:34;;;;;;;11.73;7.40;;;;;;;;;;10449326;28;20025;-73
2022/08/13 09:28:35;;;;;;;10.82;7.75;;;;;;;;;;10449538;28;20013;-74
2022/08/13 09:33:38;;;;;;;19.38;6.72;;;;;;;;;;10450089;28;20021;-75
2022/08/13 09:38:38;;;;;;;12.60;7.50;;;;;;;;;;10449678;28;20024;-75
2022/08/13 09:43:40;;;;;;;11.35;6.78;;;;;;;;;;10448791;28;20565;-75
2022/08/13 09:48:41;;;;;;;18.35;7.75;;;;;;;;;;10450545;28;20032;-75
2022/08/13 09:53:46;;;;;;;9.48;7.10;;;;;;;;;;10449203;28;20414;-80
2022/08/13 09:58:50;;;;;;;10.90;7.28;;;;;;;;;;10449071;28;20120;-75
2022/08/13 10:03:51;;;;;;;10.93;6.80;;;;;;;;;;10448727;28;20107;-75
2022/08/13 10:08:51;;;;;;;11.60;6.30;;;;;;;;;;10448648;28;20462;-75
2022/08/13 10:13:54;;;;;;;8.75;6.47;;;;;;;;;;10458675;28;20414;-75
2022/08/13 10:18:55;;;;;;;9.18;7.07;;;;;;;;;;10456420;28;20108;-75
2022/08/13 10:23:55;;;;;;;11.85;7.32;;;;;;;;;;10456110;28;20492;-76
2022/08/13 10:28:55;;;;;;;15.95;10.15;;;;;;;;;;10456209;28;20021;-74
2022/08/13 10:33:59;;;;;;;16.37;9.80;;;;;;;;;;10455677;28;20024;-75
2022/08/13 10:38:59;;;;;;;16.63;9.88;;;;;;;;;;10455340;28;20024;-75
2022/08/13 10:43:59;;;;;;;21.00;11.07;;;;;;;;;;10456507;28;20523;-74
2022/08/13 10:49:00;;;;;;;15.43;10.18;;;;;;;;;;10455587;28;20025;-75
2022/08/13 10:54:00;;;;;;;17.60;10.93;;;;;;;;;;10454827;28;20505;-75
2022/08/13 10:59:01;;;;;;;14.77;9.47;;;;;;;;;;10455123;28;20505;-76
2022/08/13 11:04:03;;;;;;;20.00;10.15;;;;;;;;;;10454997;28;20032;-75
2022/08/13 11:09:04;;;;;;;19.08;9.25;;;;;;;;;;10454679;28;20021;-75
2022/08/13 11:14:06;;;;;;;13.20;8.75;;;;;;;;;;10454268;28;20409;-75
2022/08/13 11:19:14;;;;;;;13.55;8.27;;;;;;;;;;10454150;28;20017;-74
2022/08/13 11:24:14;;;;;;;11.60;7.88;;;;;;;;;;10454736;28;20467;-75
2022/08/13 11:29:15;;;;;;;15.02;8.77;;;;;;;;;;10453789;28;20021;-74
2022/08/13 11:34:15;;;;;;;13.07;8.80;;;;;;;;;;10453889;28;20021;-74
2022/08/13 11:39:15;;;;;;;9.93;6.78;;;;;;;;;;10429761;28;20371;-73
2022/08/13 11:44:16;;;;;;;9.38;6.82;;;;;;;;;;10452829;28;20056;-74
2022/08/13 11:49:16;;;;;;;9.23;7.28;;;;;;;;;;10453466;28;20449;-75
2022/08/13 11:54:18;;;;;;;12.73;8.00;;;;;;;;;;10452812;28;20112;-74
2022/08/13 11:59:18;;;;;;;12.20;8.40;;;;;;;;;;10452422;28;20052;-74
2022/08/13 12:04:18;;;;;;;15.03;9.90;;;;;;;;;;10454055;28;20498;-75
2022/08/13 12:09:19;;;;;;;14.75;10.82;;;;;;;;;;10452201;28;20052;-74
2022/08/13 12:14:19;;;;;;;16.50;12.38;;;;;;;;;;10451717;28;20044;-74
2022/08/13 12:19:20;;;;;;;21.15;14.05;;;;;;;;;;10452992;28;20025;-74
2022/08/13 12:24:20;;;;;;;18.27;13.45;;;;;;;;;;10451467;28;20025;-74
2022/08/13 12:29:20;;;;;;;18.77;13.23;;;;;;;;;;10452632;28;20028;-74
2022/08/13 12:34:20;;;;;;;19.73;13.52;;;;;;;;;;10450918;28;20025;-75
2022/08/13 12:39:20;;;;;;;18.10;12.75;;;;;;;;;;10450837;28;20383;-74
2022/08/13 12:44:21;;;;;;;18.63;11.98;;;;;;;;;;10450390;28;20511;-74
2022/08/13 12:49:21;;;;;;;16.00;11.18;;;;;;;;;;10450897;28;20103;-74
2022/08/13 12:54:22;;;;;;;20.20;11.23;;;;;;;;;;10450400;28;20075;-74
2022/08/13 12:59:22;;;;;;;15.07;9.60;;;;;;;;;;10450249;28;20829;-74
2022/08/13 13:04:22;;;;;;;13.90;9.82;;;;;;;;;;10451735;28;20025;-74
2022/08/13 13:09:23;;;;;;;19.45;11.15;;;;;;;;;;10451383;28;20191;-74
2022/08/13 13:14:23;;;;;;;21.23;11.63;;;;;;;;;;10449716;28;20558;-74
2022/08/13 13:19:23;;;;;;;26.77;13.63;;;;;;;;;;10449836;28;20028;-73
2022/08/13 13:24:25;;;;;;;25.40;15.05;;;;;;;;;;10449435;28;20447;-75
2022/08/13 13:29:25;;;;;;;24.52;16.88;;;;;;;;;;10449705;28;20024;-74
2022/08/13 13:34:25;;;;;;;24.23;15.27;;;;;;;;;;10450800;28;20028;-74
2022/08/13 13:39:26;;;;;;;26.02;18.08;;;;;;;;;;10449825;28;20270;-75
2022/08/13 13:44:26;;;;;;;26.95;17.52;;;;;;;;;;10450282;28;20052;-74
2022/08/13 13:49:26;;;;;;;27.70;18.00;;;;;;;;;;10457542;28;20071;-73
2022/08/13 13:54:28;;;;;;;28.45;20.08;;;;;;;;;;10457476;28;20032;-73
2022/08/13 13:59:28;;;;;;;36.10;22.23;;;;;;;;;;10457178;28;20395;-74
2022/08/13 14:04:28;;;;;;;31.67;21.85;;;;;;;;;;10457112;28;20038;-74
2022/08/13 14:09:29;;;;;;;35.95;23.80;;;;;;;;;;10456723;28;20403;-73
2022/08/13 14:14:29;;;;;;;34.22;22.95;;;;;;;;;;10439972;28;20021;-74
2022/08/13 14:19:30;;;;;;;25.33;18.13;;;;;;;;;;10457664;28;20052;-74
2022/08/13 14:24:32;;;;;;;32.67;17.67;;;;;;;;;;10456229;28;20025;-73
2022/08/13 14:29:32;;;;;;;25.60;16.85;;;;;;;;;;10456171;28;20083;-73
2022/08/13 14:34:34;;;;;;;27.77;16.92;;;;;;;;;;10430522;28;20042;-74
2022/08/13 14:39:34;;;;;;;22.52;15.10;;;;;;;;;;10455909;28;20037;-73
2022/08/13 14:44:34;;;;;;;24.87;13.10;;;;;;;;;;10455696;28;20041;-74
2022/08/13 14:49:36;;;;;;;21.37;13.27;;;;;;;;;;10455524;28;20146;-73
2022/08/13 14:54:36;;;;;;;22.60;12.70;;;;;;;;;;10455157;28;20256;-74
2022/08/13 14:59:37;;;;;;;24.73;13.38;;;;;;;;;;10453957;28;20024;-75
2022/08/13 15:04:37;;;;;;;21.80;12.53;;;;;;;;;;10454518;28;20036;-74
2022/08/13 15:09:37;;;;;;;16.53;11.67;;;;;;;;;;10438145;28;20016;-73
2022/08/13 15:14:38;;;;;;;20.83;13.63;;;;;;;;;;10455956;28;20028;-73
2022/08/13 15:19:40;;;;;;;19.95;13.80;;;;;;;;;;10454605;28;20111;-74
2022/08/13 15:24:41;;;;;;;21.00;13.63;;;;;;;;;;10455353;28;20032;-74
2022/08/13 15:29:41;;;;;;;21.52;13.10;;;;;;;;;;10453614;28;20024;-73
2022/08/13 15:34:49;;;;;;;21.80;13.95;;;;;;;;;;10453776;28;20025;-73
2022/08/13 15:39:50;;;;;;;22.17;13.63;;;;;;;;;;10452589;28;20474;-73
2022/08/13 15:44:50;;;;;;;22.58;13.25;;;;;;;;;;10453024;28;20060;-73
2022/08/13 15:49:52;;;;;;;20.73;13.35;;;;;;;;;;10452714;28;20048;-73
2022/08/13 15:54:52;;;;;;;17.33;12.00;;;;;;;;;;10452746;28;20631;-74
2022/08/13 15:59:53;;;;;;;19.58;11.20;;;;;;;;;;10453830;28;20239;-74
2022/08/13 16:04:54;;;;;;;18.13;10.52;;;;;;;;;;10435709;28;20044;-74
2022/08/13 16:09:54;;;;;;;20.60;12.07;;;;;;;;;;10451665;28;20036;-74
2022/08/13 16:14:55;;;;;;;21.20;11.00;;;;;;;;;;10453280;28;20029;-73
2022/08/13 16:19:55;;;;;;;18.10;11.30;;;;;;;;;;10451645;28;20021;-73
2022/08/13 16:24:56;;;;;;;25.73;11.50;;;;;;;;;;10451358;28;20021;-73
2022/08/13 16:29:58;;;;;;;19.58;11.27;;;;;;;;;;10434759;28;20271;-74
2022/08/13 16:34:59;;;;;;;21.52;12.70;;;;;;;;;;10451533;28;20025;-74
2022/08/13 16:39:59;;;;;;;21.45;11.98;;;;;;;;;;10451189;28;20094;-74
2022/08/13 16:45:00;;;;;;;14.65;9.80;;;;;;;;;;10450598;28;20143;-76
2022/08/13 16:50:01;;;;;;;18.05;11.15;;;;;;;;;;10434453;28;20404;-74
2022/08/13 16:55:01;;;;;;;17.10;9.43;;;;;;;;;;10450928;28;20033;-74
2022/08/13 17:00:02;;;;;;;14.23;9.50;;;;;;;;;;10433929;28;20036;-74
2022/08/13 17:10:21;;;;;;;12.63;9.02;;;;;;;;;;10451578;28;20029;-74
2022/08/13 17:15:21;;;;;;;18.77;10.30;;;;;;;;;;10449893;28;20493;-73
2022/08/13 17:20:22;;;;;;;13.97;8.93;;;;;;;;;;10396944;28;20108;-73
2022/08/13 17:25:24;;;;;;;15.30;9.63;;;;;;;;;;10449986;28;20116;-74
2022/08/13 17:30:27;;;;;;;15.70;9.57;;;;;;;;;;10450145;28;20021;-74
2022/08/13 17:35:27;;;;;;;17.40;10.43;;;;;;;;;;10450134;28;20032;-74
2022/08/13 17:40:28;;;;;;;18.52;11.38;;;;;;;;;;10449466;28;20045;-74
2022/08/13 17:45:28;;;;;;;18.88;11.45;;;;;;;;;;10451009;28;20476;-75
2022/08/13 17:50:29;;;;;;;18.53;11.70;;;;;;;;;;10449815;28;20402;-75
2022/08/13 17:55:29;;;;;;;20.65;11.73;;;;;;;;;;10449823;28;20480;-75
2022/08/13 18:00:29;;;;;;;22.75;11.65;;;;;;;;;;10449718;28;20032;-74
2022/08/13 18:05:31;;;;;;;20.15;11.90;;;;;;;;;;10449806;28;20108;-76
2022/08/13 18:10:31;;;;;;;17.60;11.35;;;;;;;;;;10449555;28;20017;-74
2022/08/13 18:15:32;;;;;;;24.42;13.55;;;;;;;;;;10448998;28;20100;-74
2022/08/13 18:20:33;;;;;;;18.70;12.18;;;;;;;;;;10449064;28;20025;-74
2022/08/13 18:25:33;;;;;;;22.45;11.93;;;;;;;;;;10450450;28;20021;-74
2022/08/13 18:30:33;;;;;;;22.27;12.95;;;;;;;;;;10451313;28;20470;-75
2022/08/13 18:35:34;;;;;;;19.97;12.60;;;;;;;;;;10456108;28;20414;-75
2022/08/13 18:40:35;;;;;;;20.90;13.13;;;;;;;;;;10455497;28;20723;-75
2022/08/13 18:45:35;;;;;;;24.85;14.93;;;;;;;;;;10455778;28;20021;-75
2022/08/13 18:50:36;;;;;;;23.10;14.70;;;;;;;;;;10455160;28;20112;-75
2022/08/13 18:55:36;;;;;;;24.23;15.02;;;;;;;;;;10457272;28;20124;-74
2022/08/13 19:00:37;;;;;;;26.35;15.15;;;;;;;;;;10454971;28;20021;-74
2022/08/13 19:05:37;;;;;;;27.38;15.23;;;;;;;;;;10456834;28;20395;-74
2022/08/13 19:10:38;;;;;;;27.90;14.23;;;;;;;;;;10455122;28;20111;-74
2022/08/13 19:15:39;;;;;;;23.73;14.90;;;;;;;;;;10455456;28;20083;-73
2022/08/13 19:20:40;;;;;;;24.52;15.45;;;;;;;;;;10455802;28;20021;-74
2022/08/13 19:25:40;;;;;;;24.88;14.85;;;;;;;;;;10454186;28;20059;-74
2022/08/13 19:30:40;;;;;;;26.17;14.10;;;;;;;;;;10420827;28;20013;-74
2022/08/13 19:35:41;;;;;;;25.52;14.38;;;;;;;;;;10437557;28;20414;-74
2022/08/13 19:40:42;;;;;;;25.48;14.07;;;;;;;;;;10455076;28;20048;-75
2022/08/13 19:45:43;;;;;;;22.45;13.65;;;;;;;;;;10452688;28;20033;-74
2022/08/13 19:50:44;;;;;;;19.42;12.02;;;;;;;;;;10453155;28;20021;-74
2022/08/13 19:55:44;;;;;;;17.10;11.60;;;;;;;;;;10454923;28;20542;-74
2022/08/13 20:00:45;;;;;;;20.63;12.47;;;;;;;;;;10452700;28;20024;-74
2022/08/13 20:05:45;;;;;;;18.67;11.77;;;;;;;;;;10454170;28;20013;-76
2022/08/13 20:10:46;;;;;;;17.80;11.93;;;;;;;;;;10452802;28;20020;-75
2022/08/13 20:15:46;;;;;;;18.15;12.20;;;;;;;;;;10452221;28;20031;-74
2022/08/13 20:20:48;;;;;;;22.70;14.35;;;;;;;;;;10452079;28;20020;-73
2022/08/13 20:25:50;;;;;;;22.83;13.63;;;;;;;;;;10452195;28;20059;-74
2022/08/13 20:30:50;;;;;;;22.48;12.80;;;;;;;;;;10451675;28;20103;-75
2022/08/13 20:35:51;;;;;;;21.88;13.80;;;;;;;;;;10451459;28;20099;-74
2022/08/13 20:40:53;;;;;;;24.13;14.05;;;;;;;;;;10451038;28;20064;-73
2022/08/13 20:45:53;;;;;;;22.63;13.57;;;;;;;;;;10451283;28;20017;-75
2022/08/13 20:50:54;;;;;;;22.33;12.23;;;;;;;;;;10450962;28;20124;-73
2022/08/13 20:55:54;;;;;;;19.58;11.50;;;;;;;;;;10452237;28;20079;-74
2022/08/13 21:00:55;;;;;;;18.43;11.57;;;;;;;;;;10450728;28;20472;-74
2022/08/13 21:05:55;;;;;;;19.13;12.70;;;;;;;;;;10450907;28;20483;-74
2022/08/13 21:10:55;;;;;;;17.98;11.50;;;;;;;;;;10450647;28;20414;-75
2022/08/13 21:15:55;;;;;;;18.85;12.05;;;;;;;;;;10409628;28;20600;-73
2022/08/13 21:20:56;;;;;;;19.70;11.57;;;;;;;;;;10449680;28;20028;-75
2022/08/13 21:25:56;;;;;;;23.45;12.32;;;;;;;;;;10450452;28;20027;-74
2022/08/13 21:30:56;;;;;;;24.08;12.90;;;;;;;;;;10451796;28;20115;-73
2022/08/13 21:35:57;;;;;;;18.38;12.18;;;;;;;;;;10450160;28;20475;-73
2022/08/13 21:40:57;;;;;;;17.35;11.60;;;;;;;;;;10449938;28;20079;-74
2022/08/13 21:45:57;;;;;;;22.08;11.85;;;;;;;;;;10449956;28;20017;-73
2022/08/13 21:50:57;;;;;;;17.35;11.02;;;;;;;;;;10450016;28;20119;-75
2022/08/13 21:55:58;;;;;;;16.35;11.52;;;;;;;;;;10450208;28;20021;-73
2022/08/13 22:00:58;;;;;;;20.10;12.57;;;;;;;;;;10449678;28;20017;-73
2022/08/13 22:06:00;;;;;;;22.17;12.27;;;;;;;;;;10407717;28;20064;-75
2022/08/13 22:11:01;;;;;;;23.42;12.52;;;;;;;;;;10458988;28;20021;-74
2022/08/13 22:16:01;;;;;;;24.30;14.80;;;;;;;;;;10459905;28;20017;-74
2022/08/13 22:21:02;;;;;;;23.42;14.25;;;;;;;;;;10457932;28;20092;-74
2022/08/13 22:26:02;;;;;;;28.77;15.05;;;;;;;;;;10456778;28;20063;-74
2022/08/13 22:31:04;;;;;;;29.67;13.55;;;;;;;;;;10456723;28;20017;-73
2022/08/13 22:36:05;;;;;;;26.92;14.85;;;;;;;;;;10458104;28;20029;-74
2022/08/13 22:41:05;;;;;;;34.05;16.65;;;;;;;;;;10456158;28;20135;-73
2022/08/13 22:46:06;;;;;;;28.83;15.77;;;;;;;;;;10456483;28;20112;-74
2022/08/13 22:51:06;;;;;;;29.42;15.80;;;;;;;;;;10456024;28;20017;-74
2022/08/13 22:56:06;;;;;;;30.15;16.52;;;;;;;;;;10455754;28;20045;-75
2022/08/13 23:01:07;;;;;;;25.40;16.13;;;;;;;;;;10457124;28;20028;-74
2022/08/13 23:06:08;;;;;;;31.23;18.00;;;;;;;;;;10455273;28;20402;-75
2022/08/13 23:11:08;;;;;;;27.10;14.52;;;;;;;;;;10439031;28;20024;-74
2022/08/13 23:16:08;;;;;;;25.10;14.50;;;;;;;;;;10455024;28;20029;-74
2022/08/13 23:21:09;;;;;;;23.00;13.73;;;;;;;;;;10455313;28;20132;-73
2022/08/13 23:26:09;;;;;;;26.80;15.27;;;;;;;;;;10454750;28;20040;-74
2022/08/13 23:31:10;;;;;;;25.73;14.60;;;;;;;;;;10454502;28;20536;-74
2022/08/13 23:36:11;;;;;;;24.55;15.02;;;;;;;;;;10455500;28;20032;-74
2022/08/13 23:41:12;;;;;;;23.63;14.75;;;;;;;;;;10453972;28;20139;-74
2022/08/13 23:46:12;;;;;;;25.92;15.40;;;;;;;;;;10455303;28;20155;-75
2022/08/13 23:51:12;;;;;;;29.00;14.95;;;;;;;;;;10453778;28;20044;-75
2022/08/13 23:56:12;;;;;;;23.38;15.10;;;;;;;;;;10453730;28;20078;-74
